Time;durP1;ratioP1;P1;durP2;ratioP2;P2;SDS_P1;SDS_P2;PMS_P1;PMS_P2;Temp;Humidity;BMP_temperature;BMP_pressure;BME280_temperature;BME280_humidity;BME280_pressure;Samples;Min_cycle;Max_cycle;Signal;HPM_P1;HPM_P2
2022/01/11 00:00:10;;;;;;;9.95;5.72;;;;;;;;;;5018271;28;20034;-72
2022/01/11 00:02:41;;;;;;;8.32;5.10;;;;;;;;;;5001469;28;20034;-72
2022/01/11 00:05:18;;;;;;;10.35;5.18;;;;;;;;;;5017971;28;20021;-72
2022/01/11 00:07:44;;;;;;;10.52;5.45;;;;;;;;;;5001640;28;20041;-72
2022/01/11 00:10:13;;;;;;;8.73;5.00;;;;;;;;;;5017986;28;20038;-70
2022/01/11 00:12:39;;;;;;;8.50;4.63;;;;;;;;;;5011901;28;20026;-72
2022/01/11 00:15:05;;;;;;;7.75;4.53;;;;;;;;;;5000896;28;20014;-71
2022/01/11 00:17:30;;;;;;;6.82;4.10;;;;;;;;;;5017756;28;20021;-72
2022/01/11 00:19:56;;;;;;;8.48;5.10;;;;;;;;;;5018333;28;20018;-71
2022/01/11 00:22:27;;;;;;;10.88;4.88;;;;;;;;;;5017664;28;20014;-71
2022/01/11 00:24:53;;;;;;;10.20;5.22;;;;;;;;;;5000585;28;20018;-71
2022/01/11 00:27:18;;;;;;;10.82;5.32;;;;;;;;;;5017520;28;20061;-71
2022/01/11 00:29:48;;;;;;;10.85;5.68;;;;;;;;;;5013140;28;20002;-70
2022/01/11 00:32:17;;;;;;;9.90;5.13;;;;;;;;;;5018200;28;20012;-71
2022/01/11 00:34:50;;;;;;;9.13;4.80;;;;;;;;;;5000780;28;20079;-71
2022/01/11 00:37:18;;;;;;;8.55;4.97;;;;;;;;;;5000206;28;20040;-71
2022/01/11 00:39:45;;;;;;;8.15;4.55;;;;;;;;;;5017664;28;20022;-72
2022/01/11 00:42:12;;;;;;;9.00;5.15;;;;;;;;;;5017243;28;20042;-70
2022/01/11 00:44:38;;;;;;;8.68;4.85;;;;;;;;;;5017517;28;20030;-70
2022/01/11 00:47:03;;;;;;;9.00;4.80;;;;;;;;;;5001095;28;20010;-72
2022/01/11 00:49:29;;;;;;;7.00;4.25;;;;;;;;;;5000179;28;20046;-70
2022/01/11 00:51:54;;;;;;;9.15;5.10;;;;;;;;;;5001208;28;20006;-72
2022/01/11 00:54:20;;;;;;;9.48;4.88;;;;;;;;;;5017297;28;20038;-71
2022/01/11 00:56:45;;;;;;;9.25;5.32;;;;;;;;;;5003293;28;20018;-71
2022/01/11 00:59:10;;;;;;;9.18;5.20;;;;;;;;;;5021887;28;20143;-71
2022/01/11 01:01:37;;;;;;;9.20;5.18;;;;;;;;;;5020832;28;20013;-70
2022/01/11 01:04:07;;;;;;;8.48;5.15;;;;;;;;;;5004136;28;20033;-71
2022/01/11 01:06:33;;;;;;;10.32;5.65;;;;;;;;;;5021770;28;20010;-72
2022/01/11 01:08:58;;;;;;;10.68;5.78;;;;;;;;;;5021412;28;20026;-71
2022/01/11 01:11:24;;;;;;;8.40;4.85;;;;;;;;;;5021725;28;20014;-72
2022/01/11 01:13:49;;;;;;;9.30;4.80;;;;;;;;;;5020719;28;20051;-71
2022/01/11 01:16:15;;;;;;;8.23;5.38;;;;;;;;;;5021425;28;20014;-72
2022/01/11 01:18:40;;;;;;;9.63;4.90;;;;;;;;;;5021128;28;20010;-71
2022/01/11 01:21:06;;;;;;;8.68;5.30;;;;;;;;;;5021710;28;20078;-71
2022/01/11 01:23:33;;;;;;;9.05;5.07;;;;;;;;;;5020894;28;20048;-71
2022/01/11 01:25:59;;;;;;;9.90;5.60;;;;;;;;;;5021464;28;20060;-71
2022/01/11 01:28:25;;;;;;;9.95;5.68;;;;;;;;;;5007127;28;20037;-72
2022/01/11 01:30:52;;;;;;;10.48;5.75;;;;;;;;;;5021246;28;20018;-72
2022/01/11 01:33:18;;;;;;;11.40;5.60;;;;;;;;;;5003876;28;20015;-72
2022/01/11 01:35:49;;;;;;;7.93;5.00;;;;;;;;;;5020760;28;20041;-72
2022/01/11 01:38:21;;;;;;;9.13;5.47;;;;;;;;;;5004137;28;20078;-71
2022/01/11 01:40:47;;;;;;;9.40;5.47;;;;;;;;;;5011188;28;20026;-71
2022/01/11 01:43:14;;;;;;;12.40;6.05;;;;;;;;;;5003655;28;20017;-72
2022/01/11 01:45:43;;;;;;;9.38;5.65;;;;;;;;;;5003524;28;20034;-70
2022/01/11 01:48:08;;;;;;;9.13;4.97;;;;;;;;;;5020567;28;20018;-71
2022/01/11 01:50:35;;;;;;;8.63;5.32;;;;;;;;;;5020649;28;20070;-71
2022/01/11 01:53:03;;;;;;;7.95;4.82;;;;;;;;;;5020978;28;20002;-72
2022/01/11 01:55:29;;;;;;;7.38;4.63;;;;;;;;;;5020554;28;20034;-70
2022/01/11 01:57:54;;;;;;;9.18;4.45;;;;;;;;;;5020503;28;20018;-70
2022/01/11 02:00:22;;;;;;;9.88;4.93;;;;;;;;;;5020169;28;20049;-71
2022/01/11 02:02:47;;;;;;;8.85;4.68;;;;;;;;;;5020596;28;20014;-72
2022/01/11 02:05:13;;;;;;;9.25;5.35;;;;;;;;;;5020872;28;20070;-71
2022/01/11 02:07:39;;;;;;;8.95;4.88;;;;;;;;;;5002777;28;20018;-71
2022/01/11 02:10:07;;;;;;;9.65;4.95;;;;;;;;;;5019526;28;20018;-71
2022/01/11 02:12:34;;;;;;;10.40;4.85;;;;;;;;;;5017822;28;20017;-71
2022/01/11 02:14:59;;;;;;;8.85;4.40;;;;;;;;;;5019257;28;20014;-71
2022/01/11 02:17:27;;;;;;;8.65;4.10;;;;;;;;;;5003573;28;20122;-71
2022/01/11 02:19:57;;;;;;;7.22;3.28;;;;;;;;;;5002894;28;20022;-70
2022/01/11 02:22:24;;;;;;;5.15;2.75;;;;;;;;;;5020333;28;20037;-70
2022/01/11 02:24:49;;;;;;;7.30;3.08;;;;;;;;;;5019954;28;20014;-71
2022/01/11 02:27:15;;;;;;;7.03;3.40;;;;;;;;;;5020347;28;20057;-72
2022/01/11 02:29:42;;;;;;;4.95;2.72;;;;;;;;;;5019959;28;20024;-70
2022/01/11 02:32:07;;;;;;;5.35;2.95;;;;;;;;;;5017445;28;20021;-70
2022/01/11 02:34:33;;;;;;;7.13;2.67;;;;;;;;;;5019288;28;20014;-71
2022/01/11 02:36:58;;;;;;;4.93;2.70;;;;;;;;;;5020185;28;20046;-72
2022/01/11 02:39:24;;;;;;;5.43;2.97;;;;;;;;;;5019678;28;20082;-70
2022/01/11 02:41:52;;;;;;;5.50;2.65;;;;;;;;;;5017934;28;20065;-72
2022/01/11 02:44:17;;;;;;;4.15;1.90;;;;;;;;;;5019614;28;20030;-72
2022/01/11 02:46:43;;;;;;;4.68;2.00;;;;;;;;;;5019209;28;20018;-72
2022/01/11 02:49:08;;;;;;;5.45;2.70;;;;;;;;;;5019072;28;20082;-70
2022/01/11 02:51:34;;;;;;;3.67;1.88;;;;;;;;;;5018774;28;20045;-72
2022/01/11 02:54:00;;;;;;;5.10;2.13;;;;;;;;;;5019914;28;20018;-72
2022/01/11 02:56:26;;;;;;;4.35;2.28;;;;;;;;;;5019279;28;20022;-72
2022/01/11 02:58:53;;;;;;;4.32;2.25;;;;;;;;;;5003653;28;20015;-70
2022/01/11 03:01:19;;;;;;;5.25;2.53;;;;;;;;;;5019223;28;20014;-71
2022/01/11 03:03:45;;;;;;;4.93;2.90;;;;;;;;;;5018953;28;20007;-71
2022/01/11 03:06:10;;;;;;;4.53;2.35;;;;;;;;;;5002189;28;20017;-71
2022/01/11 03:08:42;;;;;;;4.95;2.55;;;;;;;;;;5018960;28;20006;-70
2022/01/11 03:11:08;;;;;;;4.70;2.30;;;;;;;;;;5018997;28;20021;-71
2022/01/11 03:13:35;;;;;;;7.82;2.97;;;;;;;;;;5018837;28;20058;-70
2022/01/11 03:16:02;;;;;;;4.85;2.65;;;;;;;;;;5018385;28;20011;-71
2022/01/11 03:18:27;;;;;;;6.05;2.70;;;;;;;;;;5001447;28;20006;-72
2022/01/11 03:20:53;;;;;;;5.78;3.13;;;;;;;;;;5018275;28;20077;-72
2022/01/11 03:23:20;;;;;;;6.25;2.95;;;;;;;;;;5019001;28;20050;-71
2022/01/11 03:25:47;;;;;;;5.47;2.80;;;;;;;;;;5018742;28;20026;-72
2022/01/11 03:28:12;;;;;;;6.05;3.08;;;;;;;;;;5018660;28;20014;-71
2022/01/11 03:30:38;;;;;;;4.55;2.67;;;;;;;;;;5018023;28;20026;-72
2022/01/11 03:33:08;;;;;;;5.63;3.08;;;;;;;;;;5002083;28;20018;-71
2022/01/11 03:35:34;;;;;;;5.10;2.65;;;;;;;;;;5017545;28;20014;-71
2022/01/11 03:38:00;;;;;;;4.88;2.78;;;;;;;;;;5012018;28;21617;-70
2022/01/11 03:40:26;;;;;;;5.32;2.63;;;;;;;;;;5017834;28;20032;-70
2022/01/11 03:42:52;;;;;;;6.43;3.38;;;;;;;;;;5018504;28;20034;-71
2022/01/11 03:45:21;;;;;;;6.63;3.45;;;;;;;;;;5000903;28;20018;-72
2022/01/11 03:47:49;;;;;;;7.35;3.30;;;;;;;;;;5018915;28;20077;-71
2022/01/11 03:50:14;;;;;;;5.55;3.25;;;;;;;;;;5018103;28;20029;-71
2022/01/11 03:52:40;;;;;;;5.70;2.83;;;;;;;;;;5018398;28;20022;-71
2022/01/11 03:55:15;;;;;;;4.85;3.17;;;;;;;;;;5018121;28;20011;-71
2022/01/11 03:57:41;;;;;;;6.55;2.83;;;;;;;;;;5018509;28;20010;-70
2022/01/11 04:00:12;;;;;;;7.22;3.67;;;;;;;;;;5000884;28;20033;-69
2022/01/11 04:02:38;;;;;;;4.60;2.80;;;;;;;;;;5017584;28;20022;-70
2022/01/11 04:05:04;;;;;;;4.22;2.53;;;;;;;;;;5001466;28;20037;-71
2022/01/11 04:07:29;;;;;;;4.65;2.30;;;;;;;;;;5018097;28;20066;-71
2022/01/11 04:09:56;;;;;;;5.55;2.58;;;;;;;;;;5000634;28;20086;-70
2022/01/11 04:12:23;;;;;;;3.50;1.90;;;;;;;;;;5001285;28;20018;-71
2022/01/11 04:14:48;;;;;;;5.97;2.58;;;;;;;;;;5017746;28;20033;-70
2022/01/11 04:17:14;;;;;;;4.10;2.28;;;;;;;;;;5000368;28;20014;-72
2022/01/11 04:19:40;;;;;;;4.47;2.60;;;;;;;;;;5001298;28;20038;-71
2022/01/11 04:22:06;;;;;;;5.00;2.45;;;;;;;;;;5018280;28;20208;-71
2022/01/11 04:24:31;;;;;;;4.38;2.42;;;;;;;;;;5000645;28;20052;-70
2022/01/11 04:26:56;;;;;;;5.53;3.03;;;;;;;;;;5017531;28;20073;-70
2022/01/11 04:29:22;;;;;;;6.07;2.58;;;;;;;;;;5017678;28;20010;-70
2022/01/11 04:31:48;;;;;;;5.82;3.40;;;;;;;;;;5016980;28;20034;-71
2022/01/11 04:34:14;;;;;;;4.78;2.70;;;;;;;;;;5017325;28;20113;-70
2022/01/11 04:36:40;;;;;;;4.82;2.75;;;;;;;;;;5016843;28;20038;-72
2022/01/11 04:39:08;;;;;;;5.53;3.00;;;;;;;;;;5017730;28;20006;-71
2022/01/11 04:41:34;;;;;;;5.22;2.85;;;;;;;;;;5017243;28;20026;-72
2022/01/11 04:44:00;;;;;;;6.07;2.50;;;;;;;;;;5000758;28;20026;-71
2022/01/11 04:46:26;;;;;;;5.15;3.00;;;;;;;;;;5016702;28;20018;-71
2022/01/11 04:48:53;;;;;;;5.45;2.70;;;;;;;;;;5017313;28;20026;-71
2022/01/11 04:51:20;;;;;;;7.38;2.90;;;;;;;;;;5017162;28;20049;-72
2022/01/11 04:53:46;;;;;;;5.53;2.67;;;;;;;;;;5017157;28;20056;-70
2022/01/11 04:56:11;;;;;;;4.95;3.13;;;;;;;;;;5016755;28;20038;-70
2022/01/11 04:58:37;;;;;;;5.65;2.90;;;;;;;;;;5016936;28;20030;-70
2022/01/11 05:01:02;;;;;;;5.10;2.55;;;;;;;;;;5016987;28;20007;-70
2022/01/11 05:03:28;;;;;;;4.75;2.47;;;;;;;;;;5017504;28;20019;-70
2022/01/11 05:05:53;;;;;;;5.60;2.53;;;;;;;;;;5017555;28;20010;-70
2022/01/11 05:08:18;;;;;;;4.32;2.38;;;;;;;;;;5012242;28;20031;-70
2022/01/11 05:10:44;;;;;;;5.78;2.55;;;;;;;;;;5016819;28;20018;-70
2022/01/11 05:13:14;;;;;;;5.35;2.78;;;;;;;;;;5016920;28;20024;-69
2022/01/11 05:15:40;;;;;;;3.97;2.50;;;;;;;;;;5017068;28;20046;-71
2022/01/11 05:18:07;;;;;;;4.88;2.70;;;;;;;;;;5016571;28;20048;-70
2022/01/11 05:20:32;;;;;;;5.45;2.60;;;;;;;;;;5016629;28;20010;-71
2022/01/11 05:22:57;;;;;;;7.45;3.10;;;;;;;;;;5016633;28;20011;-71
2022/01/11 05:25:23;;;;;;;6.60;3.30;;;;;;;;;;4999494;28;20082;-70
2022/01/11 05:27:48;;;;;;;6.18;3.17;;;;;;;;;;5016749;28;20078;-71
2022/01/11 05:30:14;;;;;;;6.28;3.13;;;;;;;;;;5016877;28;20104;-71
2022/01/11 05:32:42;;;;;;;5.47;3.15;;;;;;;;;;5016008;28;20033;-70
2022/01/11 05:35:09;;;;;;;6.60;3.05;;;;;;;;;;5017036;28;20037;-70
2022/01/11 05:37:34;;;;;;;6.20;3.10;;;;;;;;;;5016297;28;20082;-73
2022/01/11 05:40:00;;;;;;;6.53;3.28;;;;;;;;;;5017069;28;20018;-71
2022/01/11 05:42:26;;;;;;;7.63;3.45;;;;;;;;;;5000242;28;20025;-70
2022/01/11 05:44:52;;;;;;;6.88;3.60;;;;;;;;;;5020634;28;20037;-71
2022/01/11 05:47:17;;;;;;;7.90;4.03;;;;;;;;;;5020735;28;20015;-69
2022/01/11 05:49:43;;;;;;;7.03;4.10;;;;;;;;;;5002120;28;20044;-70
2022/01/11 05:52:08;;;;;;;7.15;3.80;;;;;;;;;;5020292;28;20019;-71
2022/01/11 05:54:34;;;;;;;8.77;3.65;;;;;;;;;;5020452;28;20038;-69
2022/01/11 05:56:59;;;;;;;6.70;3.92;;;;;;;;;;5020686;28;20078;-71
2022/01/11 05:59:25;;;;;;;5.82;3.40;;;;;;;;;;5019467;28;20010;-70
2022/01/11 06:01:50;;;;;;;9.40;3.80;;;;;;;;;;5020661;28;20018;-71
2022/01/11 06:04:16;;;;;;;6.90;3.67;;;;;;;;;;5020568;28;20052;-71
2022/01/11 06:06:41;;;;;;;6.45;3.50;;;;;;;;;;5019770;28;20157;-70
2022/01/11 06:09:07;;;;;;;6.80;3.80;;;;;;;;;;5020051;28;20049;-71
2022/01/11 06:11:32;;;;;;;6.57;3.40;;;;;;;;;;5019213;28;20066;-71
2022/01/11 06:13:58;;;;;;;7.13;3.95;;;;;;;;;;5020364;28;20010;-70
2022/01/11 06:16:24;;;;;;;6.93;3.58;;;;;;;;;;5019430;28;20061;-70
2022/01/11 06:18:50;;;;;;;6.25;3.45;;;;;;;;;;5020613;28;20022;-71
2022/01/11 06:21:15;;;;;;;7.88;3.80;;;;;;;;;;5002592;28;20044;-69
2022/01/11 06:23:41;;;;;;;6.97;3.78;;;;;;;;;;5020031;28;20018;-71
2022/01/11 06:26:07;;;;;;;7.50;3.47;;;;;;;;;;5019898;28;20025;-69
2022/01/11 06:28:32;;;;;;;6.57;3.35;;;;;;;;;;5019649;28;20022;-70
2022/01/11 06:30:58;;;;;;;5.95;2.83;;;;;;;;;;5019023;28;20094;-70
2022/01/11 06:33:23;;;;;;;6.60;3.20;;;;;;;;;;5019418;28;20060;-70
2022/01/11 06:35:49;;;;;;;4.85;2.90;;;;;;;;;;5017610;28;20111;-69
2022/01/11 06:38:14;;;;;;;5.47;2.67;;;;;;;;;;5019932;28;20010;-71
2022/01/11 06:40:41;;;;;;;5.10;2.80;;;;;;;;;;5018859;28;20031;-70
2022/01/11 06:43:07;;;;;;;5.15;2.80;;;;;;;;;;5002563;28;20010;-70
2022/01/11 06:45:36;;;;;;;5.53;2.83;;;;;;;;;;5019795;28;20026;-69
2022/01/11 06:48:01;;;;;;;4.50;2.50;;;;;;;;;;5015770;28;20026;-71
2022/01/11 06:50:27;;;;;;;5.07;2.80;;;;;;;;;;5019108;28;20014;-70
2022/01/11 06:52:53;;;;;;;5.85;2.67;;;;;;;;;;5019489;28;20024;-70
2022/01/11 06:55:19;;;;;;;6.88;2.95;;;;;;;;;;5018934;28;20018;-69
2022/01/11 06:57:45;;;;;;;6.65;3.08;;;;;;;;;;5019706;28;20011;-70
2022/01/11 07:00:12;;;;;;;6.15;3.15;;;;;;;;;;5019283;28;20045;-72
2022/01/11 07:02:37;;;;;;;6.40;3.03;;;;;;;;;;5019118;28;20006;-70
2022/01/11 07:05:06;;;;;;;5.63;2.95;;;;;;;;;;5019309;28;20011;-71
2022/01/11 07:07:31;;;;;;;6.20;3.28;;;;;;;;;;5019430;28;20014;-71
2022/01/11 07:09:57;;;;;;;5.72;2.70;;;;;;;;;;5018567;28;20030;-69
2022/01/11 07:12:22;;;;;;;5.20;2.92;;;;;;;;;;5002265;28;20018;-70
2022/01/11 07:14:47;;;;;;;5.88;3.13;;;;;;;;;;5018676;28;20013;-69
2022/01/11 07:17:15;;;;;;;5.40;2.95;;;;;;;;;;5019325;28;20010;-71
2022/01/11 07:19:41;;;;;;;5.90;3.15;;;;;;;;;;5018441;28;20037;-71
2022/01/11 07:22:07;;;;;;;5.18;2.70;;;;;;;;;;5018161;28;20030;-71
2022/01/11 07:24:32;;;;;;;4.78;3.03;;;;;;;;;;5018059;28;20010;-71
2022/01/11 07:26:58;;;;;;;5.78;2.97;;;;;;;;;;5002380;28;20046;-71
2022/01/11 07:29:24;;;;;;;5.97;2.90;;;;;;;;;;5018352;28;20009;-70
2022/01/11 07:31:49;;;;;;;6.63;2.90;;;;;;;;;;5018740;28;20029;-70
2022/01/11 07:34:16;;;;;;;6.57;3.30;;;;;;;;;;5018261;28;20003;-70
2022/01/11 07:36:42;;;;;;;5.50;3.00;;;;;;;;;;5017661;28;20034;-69
2022/01/11 07:39:09;;;;;;;6.45;3.08;;;;;;;;;;5018212;28;20034;-70
2022/01/11 07:41:34;;;;;;;5.60;3.10;;;;;;;;;;5018210;28;20030;-70
2022/01/11 07:43:59;;;;;;;5.97;3.10;;;;;;;;;;5017625;28;20037;-70
2022/01/11 07:46:25;;;;;;;7.90;4.13;;;;;;;;;;5001105;28;20017;-69
2022/01/11 07:48:51;;;;;;;8.35;4.20;;;;;;;;;;5018301;28;20014;-70
2022/01/11 07:51:16;;;;;;;9.45;4.13;;;;;;;;;;5019395;28;20018;-72
2022/01/11 07:53:42;;;;;;;7.60;3.80;;;;;;;;;;5018173;28;20010;-69
2022/01/11 07:56:08;;;;;;;7.38;3.83;;;;;;;;;;5017952;28;20018;-72
2022/01/11 07:58:33;;;;;;;7.13;3.95;;;;;;;;;;5018585;28;20010;-71
2022/01/11 08:00:58;;;;;;;8.60;4.10;;;;;;;;;;5017821;28;20030;-70
2022/01/11 08:03:24;;;;;;;7.80;4.50;;;;;;;;;;5018385;28;20018;-71
2022/01/11 08:05:50;;;;;;;8.20;4.80;;;;;;;;;;5017691;28;20040;-71
2022/01/11 08:08:16;;;;;;;7.63;4.40;;;;;;;;;;5000316;28;20038;-71
2022/01/11 08:10:42;;;;;;;9.13;4.43;;;;;;;;;;5017848;28;20017;-70
2022/01/11 08:13:09;;;;;;;8.75;4.35;;;;;;;;;;5011714;28;20014;-71
2022/01/11 08:15:35;;;;;;;6.72;3.83;;;;;;;;;;5018284;28;20018;-71
2022/01/11 08:18:01;;;;;;;7.70;3.75;;;;;;;;;;5017582;28;20034;-70
2022/01/11 08:20:26;;;;;;;8.40;4.03;;;;;;;;;;5017301;28;20074;-70
2022/01/11 08:22:53;;;;;;;6.47;3.58;;;;;;;;;;5017821;28;20006;-71
2022/01/11 08:25:19;;;;;;;7.05;3.65;;;;;;;;;;5017969;28;20109;-71
2022/01/11 08:27:44;;;;;;;7.32;3.38;;;;;;;;;;5018329;28;20010;-72
2022/01/11 08:30:10;;;;;;;7.22;3.63;;;;;;;;;;5017900;28;20024;-70
2022/01/11 08:32:36;;;;;;;7.43;3.35;;;;;;;;;;5017091;28;20037;-70
2022/01/11 08:35:01;;;;;;;5.32;2.75;;;;;;;;;;5017576;28;20010;-70
2022/01/11 08:37:27;;;;;;;7.30;3.03;;;;;;;;;;5017932;28;20010;-70
2022/01/11 08:39:53;;;;;;;4.57;2.38;;;;;;;;;;5017547;28;20030;-70
2022/01/11 08:42:18;;;;;;;5.40;2.72;;;;;;;;;;5012280;28;20026;-69
2022/01/11 08:44:46;;;;;;;5.63;2.90;;;;;;;;;;5017805;28;20078;-71
2022/01/11 08:47:12;;;;;;;7.60;3.50;;;;;;;;;;5017237;28;20041;-71
2022/01/11 08:49:38;;;;;;;7.32;3.40;;;;;;;;;;5017241;28;20074;-71
2022/01/11 08:52:04;;;;;;;6.07;3.05;;;;;;;;;;5008750;28;20010;-71
2022/01/11 08:54:30;;;;;;;6.45;3.35;;;;;;;;;;5016865;28;20026;-70
2022/01/11 08:56:56;;;;;;;5.60;3.08;;;;;;;;;;5018162;28;20026;-72
2022/01/11 08:59:22;;;;;;;6.38;3.03;;;;;;;;;;5017734;28;20038;-71
2022/01/11 09:01:49;;;;;;;5.88;3.17;;;;;;;;;;5016903;28;20252;-70
2022/01/11 09:04:16;;;;;;;7.10;3.45;;;;;;;;;;5014174;28;20046;-71
2022/01/11 09:06:42;;;;;;;4.10;2.60;;;;;;;;;;5016659;28;20021;-71
2022/01/11 09:09:07;;;;;;;5.47;3.38;;;;;;;;;;5016747;28;20010;-70
2022/01/11 09:11:33;;;;;;;5.70;2.90;;;;;;;;;;5016508;28;20025;-71
2022/01/11 09:13:58;;;;;;;5.68;2.72;;;;;;;;;;5002348;28;20033;-72
2022/01/11 09:16:24;;;;;;;5.05;2.90;;;;;;;;;;5017459;28;20010;-71
2022/01/11 09:18:50;;;;;;;5.25;2.95;;;;;;;;;;5021309;28;20011;-70
2022/01/11 09:21:20;;;;;;;4.43;2.70;;;;;;;;;;5007891;28;20013;-71
2022/01/11 09:23:45;;;;;;;5.55;2.85;;;;;;;;;;5021196;28;20038;-72
2022/01/11 09:26:10;;;;;;;6.53;3.00;;;;;;;;;;5020929;28;20065;-71
2022/01/11 09:28:36;;;;;;;4.38;2.60;;;;;;;;;;5004602;28;20017;-70
2022/01/11 09:31:01;;;;;;;5.68;2.90;;;;;;;;;;5007116;28;20045;-71
2022/01/11 09:33:27;;;;;;;5.68;2.92;;;;;;;;;;5020754;28;20006;-71
2022/01/11 09:35:52;;;;;;;5.25;3.03;;;;;;;;;;5029720;28;20010;-71
2022/01/11 09:38:18;;;;;;;9.32;3.88;;;;;;;;;;5025065;28;20041;-71
2022/01/11 09:40:43;;;;;;;9.55;4.07;;;;;;;;;;5022132;28;20018;-70
2022/01/11 09:43:10;;;;;;;7.15;3.83;;;;;;;;;;5020328;28;20049;-70
2022/01/11 09:45:37;;;;;;;7.60;3.83;;;;;;;;;;5020110;28;20021;-70
2022/01/11 09:48:02;;;;;;;6.60;3.75;;;;;;;;;;5019723;28;20026;-71
2022/01/11 09:50:28;;;;;;;8.25;3.88;;;;;;;;;;5016439;28;20026;-71
2022/01/11 09:52:54;;;;;;;8.00;4.32;;;;;;;;;;5019212;28;20010;-71
2022/01/11 09:55:19;;;;;;;9.27;4.63;;;;;;;;;;5019582;28;20056;-71
2022/01/11 09:57:45;;;;;;;7.20;3.78;;;;;;;;;;5029106;28;20018;-70
2022/01/11 10:00:12;;;;;;;5.95;3.35;;;;;;;;;;5023253;28;20012;-70
2022/01/11 10:02:38;;;;;;;5.47;3.25;;;;;;;;;;5020685;28;20018;-70
2022/01/11 10:05:08;;;;;;;5.93;3.25;;;;;;;;;;5019517;28;20029;-70
2022/01/11 10:07:40;;;;;;;7.38;3.35;;;;;;;;;;5020357;28;20010;-70
2022/01/11 10:10:19;;;;;;;5.53;2.92;;;;;;;;;;5019771;28;20014;-71
2022/01/11 10:12:49;;;;;;;4.82;3.00;;;;;;;;;;5020253;28;20026;-70
2022/01/11 10:15:15;;;;;;;7.18;3.13;;;;;;;;;;5020142;28;20017;-70
2022/01/11 10:17:43;;;;;;;6.28;3.22;;;;;;;;;;5018879;28;20022;-71
2022/01/11 10:20:20;;;;;;;5.43;3.28;;;;;;;;;;5020381;28;20030;-71
2022/01/11 10:22:53;;;;;;;5.70;2.95;;;;;;;;;;5019599;28;20029;-70
2022/01/11 10:25:19;;;;;;;6.57;3.30;;;;;;;;;;5002476;28;20024;-71
2022/01/11 10:27:51;;;;;;;6.28;3.20;;;;;;;;;;5020611;28;20022;-71
2022/01/11 10:30:18;;;;;;;6.50;3.50;;;;;;;;;;5020585;28;20249;-71
2022/01/11 10:32:48;;;;;;;5.50;3.00;;;;;;;;;;5020273;28;20014;-70
2022/01/11 10:35:17;;;;;;;7.63;3.33;;;;;;;;;;5019178;28;20087;-70
2022/01/11 10:37:52;;;;;;;7.38;3.33;;;;;;;;;;5020167;28;20018;-70
2022/01/11 10:40:25;;;;;;;6.03;3.10;;;;;;;;;;5017179;28;20029;-71
2022/01/11 10:42:54;;;;;;;5.93;2.92;;;;;;;;;;5018140;28;20018;-70
2022/01/11 10:45:26;;;;;;;6.03;3.40;;;;;;;;;;5017637;28;20022;-71
2022/01/11 10:48:04;;;;;;;7.10;3.40;;;;;;;;;;5018018;28;20021;-69
2022/01/11 10:50:37;;;;;;;5.50;3.05;;;;;;;;;;5010271;28;20093;-71
2022/01/11 10:53:10;;;;;;;6.18;2.83;;;;;;;;;;5017609;28;20026;-70
2022/01/11 10:55:35;;;;;;;5.80;3.30;;;;;;;;;;5003597;28;20085;-70
2022/01/11 10:58:03;;;;;;;5.47;2.88;;;;;;;;;;5002046;28;20095;-69
2022/01/11 11:00:31;;;;;;;6.03;3.00;;;;;;;;;;5019230;28;20101;-71
2022/01/11 11:03:15;;;;;;;4.80;2.85;;;;;;;;;;5020615;28;20018;-72
2022/01/11 11:05:51;;;;;;;7.13;3.30;;;;;;;;;;5018478;28;20045;-71
2022/01/11 11:08:23;;;;;;;6.95;3.33;;;;;;;;;;5018485;28;20025;-69
2022/01/11 11:11:02;;;;;;;6.22;3.42;;;;;;;;;;5017571;28;20087;-71
2022/01/11 11:13:39;;;;;;;6.38;3.28;;;;;;;;;;5010693;28;20010;-70
2022/01/11 11:16:23;;;;;;;6.68;3.33;;;;;;;;;;5017614;28;20033;-72
2022/01/11 11:18:52;;;;;;;5.13;3.40;;;;;;;;;;5019111;28;20010;-72
2022/01/11 11:21:25;;;;;;;6.28;3.38;;;;;;;;;;5018670;28;20077;-70
2022/01/11 11:23:54;;;;;;;7.40;4.07;;;;;;;;;;5005752;28;20023;-70
2022/01/11 11:26:22;;;;;;;6.50;3.50;;;;;;;;;;5024185;28;20071;-69
2022/01/11 11:28:47;;;;;;;6.80;3.58;;;;;;;;;;5018992;28;20087;-70
2022/01/11 11:31:13;;;;;;;6.35;3.70;;;;;;;;;;5018848;28;20018;-70
2022/01/11 11:33:40;;;;;;;7.60;3.55;;;;;;;;;;5024123;28;20090;-71
2022/01/11 11:36:06;;;;;;;6.07;3.58;;;;;;;;;;5000883;28;20018;-69
2022/01/11 11:38:33;;;;;;;5.90;3.47;;;;;;;;;;5018317;28;20034;-69
2022/01/11 11:41:01;;;;;;;7.68;3.90;;;;;;;;;;5015875;28;20062;-70
2022/01/11 11:43:27;;;;;;;6.05;3.70;;;;;;;;;;5013209;28;20017;-70
2022/01/11 11:45:53;;;;;;;6.53;3.60;;;;;;;;;;5008113;28;20025;-72
2022/01/11 11:48:23;;;;;;;5.65;3.75;;;;;;;;;;5000723;28;20101;-70
2022/01/11 11:51:02;;;;;;;5.95;3.40;;;;;;;;;;5017638;28;20028;-71
2022/01/11 11:53:31;;;;;;;5.70;3.25;;;;;;;;;;5018410;28;20015;-71
2022/01/11 11:56:18;;;;;;;6.53;3.50;;;;;;;;;;5010568;28;20074;-69
2022/01/11 11:58:52;;;;;;;5.93;3.40;;;;;;;;;;5010707;28;20014;-70
2022/01/11 12:01:42;;;;;;;7.40;3.75;;;;;;;;;;5022570;28;20010;-72
2022/01/11 12:04:31;;;;;;;5.88;3.30;;;;;;;;;;5003051;28;20029;-72
2022/01/11 12:06:57;;;;;;;5.53;2.95;;;;;;;;;;5009481;28;20022;-72
2022/01/11 12:09:28;;;;;;;6.07;3.35;;;;;;;;;;5018064;28;20006;-70
2022/01/11 12:11:54;;;;;;;6.07;3.53;;;;;;;;;;5023846;28;20018;-71
2022/01/11 12:14:33;;;;;;;7.35;4.10;;;;;;;;;;5018347;28;20014;-71
2022/01/11 12:17:23;;;;;;;8.13;3.78;;;;;;;;;;5018602;28;20014;-70
2022/01/11 12:19:51;;;;;;;5.65;3.20;;;;;;;;;;5017869;28;20081;-69
2022/01/11 12:22:25;;;;;;;7.32;3.47;;;;;;;;;;5016577;28;20018;-69
2022/01/11 12:24:55;;;;;;;6.70;3.72;;;;;;;;;;5017677;28;20029;-69
2022/01/11 12:27:22;;;;;;;6.10;3.38;;;;;;;;;;5016531;28;20018;-69
2022/01/11 12:30:05;;;;;;;5.97;3.65;;;;;;;;;;5017166;28;20014;-70
2022/01/11 12:32:38;;;;;;;7.53;3.28;;;;;;;;;;4999619;28;20013;-69
2022/01/11 12:35:20;;;;;;;7.70;3.72;;;;;;;;;;5000453;28;20018;-70
2022/01/11 12:37:45;;;;;;;5.85;3.28;;;;;;;;;;5015476;28;20074;-69
2022/01/11 12:40:12;;;;;;;5.53;3.42;;;;;;;;;;5017629;28;20003;-69
2022/01/11 12:42:50;;;;;;;6.28;3.50;;;;;;;;;;5026831;28;20014;-70
2022/01/11 12:47:45;;;;;;;6.93;3.35;;;;;;;;;;5017605;28;20028;-70
2022/01/11 12:50:14;;;;;;;7.15;3.67;;;;;;;;;;5000934;28;20018;-69
2022/01/11 12:52:40;;;;;;;7.03;3.67;;;;;;;;;;5021779;28;20026;-70
2022/01/11 12:55:07;;;;;;;7.22;3.78;;;;;;;;;;5024474;28;20018;-71
2022/01/11 12:57:34;;;;;;;6.50;3.45;;;;;;;;;;5034896;28;20069;-71
2022/01/11 13:00:07;;;;;;;4.93;3.03;;;;;;;;;;5040148;28;20028;-69
2022/01/11 13:02:34;;;;;;;5.63;3.45;;;;;;;;;;5023884;28;20010;-71
2022/01/11 13:05:21;;;;;;;5.88;3.30;;;;;;;;;;5023726;28;20070;-69
2022/01/11 13:07:52;;;;;;;5.25;3.30;;;;;;;;;;5024227;28;20011;-70
2022/01/11 13:10:21;;;;;;;5.85;3.60;;;;;;;;;;5023800;28;20015;-71
2022/01/11 13:12:49;;;;;;;6.47;3.45;;;;;;;;;;5024293;28;20030;-70
2022/01/11 13:15:27;;;;;;;5.70;3.13;;;;;;;;;;5007005;28;20014;-70
2022/01/11 13:18:03;;;;;;;4.45;2.90;;;;;;;;;;5023845;28;20018;-69
2022/01/11 13:20:28;;;;;;;5.90;3.05;;;;;;;;;;5023819;28;20025;-70
2022/01/11 13:23:08;;;;;;;5.10;3.00;;;;;;;;;;5023844;28;20022;-70
2022/01/11 13:25:39;;;;;;;5.20;3.22;;;;;;;;;;5007125;28;20021;-69
2022/01/11 13:28:05;;;;;;;6.72;3.78;;;;;;;;;;5026059;28;20021;-69
2022/01/11 13:30:41;;;;;;;7.40;4.15;;;;;;;;;;5024646;28;20026;-69
2022/01/11 13:33:08;;;;;;;7.65;3.90;;;;;;;;;;5022556;28;20014;-71
2022/01/11 13:35:34;;;;;;;6.72;3.60;;;;;;;;;;5023621;28;20022;-70
2022/01/11 13:38:12;;;;;;;6.82;3.92;;;;;;;;;;5022379;28;20264;-70
2022/01/11 13:40:40;;;;;;;6.55;3.53;;;;;;;;;;5018636;28;20033;-69
2022/01/11 13:43:08;;;;;;;6.05;3.90;;;;;;;;;;5030370;28;20056;-69
2022/01/11 13:45:38;;;;;;;7.63;4.53;;;;;;;;;;5043707;28;20020;-70
2022/01/11 13:48:21;;;;;;;8.07;4.03;;;;;;;;;;5026375;28;20040;-69
2022/01/11 13:50:48;;;;;;;7.22;3.65;;;;;;;;;;5020873;28;20036;-70
2022/01/11 13:53:30;;;;;;;9.90;3.95;;;;;;;;;;5043348;28;20018;-69
2022/01/11 13:56:03;;;;;;;7.38;3.95;;;;;;;;;;5043533;28;20022;-70
2022/01/11 13:58:29;;;;;;;8.48;3.95;;;;;;;;;;5030428;28;20026;-68
2022/01/11 14:00:57;;;;;;;6.55;3.40;;;;;;;;;;5006044;28;20046;-69
2022/01/11 14:03:22;;;;;;;5.78;3.15;;;;;;;;;;5004592;28;20073;-68
2022/01/11 14:05:48;;;;;;;5.32;2.90;;;;;;;;;;5020481;28;20037;-69
2022/01/11 14:08:14;;;;;;;5.57;2.97;;;;;;;;;;5020747;28;20015;-69
2022/01/11 14:10:42;;;;;;;6.53;2.70;;;;;;;;;;5016500;28;20060;-70
2022/01/11 14:13:16;;;;;;;5.30;2.90;;;;;;;;;;5022071;28;20014;-69
2022/01/11 14:15:42;;;;;;;6.45;3.17;;;;;;;;;;5022968;28;20022;-69
2022/01/11 14:18:14;;;;;;;5.53;2.80;;;;;;;;;;5021408;28;20233;-69
2022/01/11 14:20:41;;;;;;;4.55;2.50;;;;;;;;;;5004672;28;20022;-69
2022/01/11 14:23:15;;;;;;;4.47;2.45;;;;;;;;;;5009445;28;20010;-69
2022/01/11 14:25:43;;;;;;;7.95;3.17;;;;;;;;;;5032467;28;20041;-70
2022/01/11 14:28:16;;;;;;;5.57;2.83;;;;;;;;;;5020185;28;20018;-69
2022/01/11 14:30:42;;;;;;;;;;;;;;;;;;5023870;28;20018;-71
2022/01/11 14:33:24;;;;;;;4.28;2.45;;;;;;;;;;5024695;28;19902;-69
2022/01/11 14:35:55;;;;;;;3.97;2.63;;;;;;;;;;5028329;28;20029;-69
2022/01/11 14:38:21;;;;;;;4.88;2.70;;;;;;;;;;5002859;28;20082;-69
2022/01/11 14:40:47;;;;;;;4.32;2.67;;;;;;;;;;5021231;28;20061;-70
2022/01/11 14:43:16;;;;;;;5.55;2.90;;;;;;;;;;5018585;28;20045;-69
2022/01/11 14:45:44;;;;;;;8.68;3.00;;;;;;;;;;5019292;28;20042;-69
2022/01/11 14:48:10;;;;;;;5.68;3.10;;;;;;;;;;5019565;28;20018;-69